createdAt,value
2019-02-26T00:00:17.155Z,14.77
2019-02-26T00:02:52.990Z,12.77
2019-02-26T00:05:28.573Z,12.90
2019-02-26T00:08:02.784Z,12.67
2019-02-26T00:10:38.907Z,13.13
2019-02-26T00:13:11.635Z,13.70
2019-02-26T00:15:45.899Z,13.10
2019-02-26T00:18:21.495Z,13.43
2019-02-26T00:20:56.831Z,13.30
2019-02-26T00:23:31.001Z,12.63
2019-02-26T00:26:04.499Z,13.67
2019-02-26T00:28:39.080Z,13.57
2019-02-26T00:31:13.297Z,14.03
2019-02-26T00:33:46.922Z,13.90
2019-02-26T00:36:20.390Z,13.43
2019-02-26T00:38:53.919Z,14.33
2019-02-26T00:41:29.139Z,13.67
2019-02-26T00:44:04.302Z,13.37
2019-02-26T00:46:39.509Z,15.37
2019-02-26T00:49:13.210Z,14.07
2019-02-26T00:51:48.265Z,13.87
2019-02-26T00:54:24.315Z,13.37
2019-02-26T00:57:01.085Z,15.37
2019-02-26T00:59:32.388Z,14.50
2019-02-26T01:02:05.923Z,14.73
2019-02-26T01:04:41.374Z,14.93
2019-02-26T01:07:14.726Z,16.20
2019-02-26T01:09:50.147Z,15.17
2019-02-26T01:12:23.409Z,14.77
2019-02-26T01:14:56.828Z,14.60
2019-02-26T01:17:31.234Z,14.90
2019-02-26T01:20:08.758Z,15.13
2019-02-26T01:22:42.903Z,17.07
2019-02-26T01:25:18.537Z,15.00
2019-02-26T01:27:53.264Z,16.63
2019-02-26T01:30:29.419Z,16.80
2019-02-26T01:33:04.993Z,16.30
2019-02-26T01:35:38.290Z,17.10
2019-02-26T01:38:12.634Z,23.90
2019-02-26T01:40:50.716Z,20.50
2019-02-26T01:43:22.708Z,20.67
2019-02-26T01:45:56.209Z,18.60
2019-02-26T01:48:30.368Z,17.20
2019-02-26T01:51:04.991Z,17.27
2019-02-26T01:53:38.453Z,15.13
2019-02-26T01:56:12.058Z,16.00
2019-02-26T01:58:45.623Z,16.00
2019-02-26T02:01:21.277Z,15.43
2019-02-26T02:03:56.163Z,15.20
2019-02-26T02:06:30.331Z,15.70
2019-02-26T02:09:09.298Z,14.77
2019-02-26T02:11:40.835Z,17.43
2019-02-26T02:14:15.391Z,15.13
2019-02-26T02:16:49.547Z,15.63
2019-02-26T02:19:25.166Z,17.63
2019-02-26T02:21:58.349Z,16.17
2019-02-26T02:24:31.983Z,15.67
2019-02-26T02:27:05.512Z,15.00
2019-02-26T02:29:41.833Z,15.07
2019-02-26T02:32:14.034Z,15.17
2019-02-26T02:34:47.503Z,14.27
2019-02-26T02:37:23.873Z,18.93
2019-02-26T02:39:56.151Z,17.00
2019-02-26T02:42:29.604Z,16.20
2019-02-26T02:45:05.165Z,15.63
2019-02-26T02:47:38.838Z,16.53
2019-02-26T02:50:15.327Z,17.67
2019-02-26T02:52:50.934Z,19.10
2019-02-26T02:55:24.341Z,17.23
2019-02-26T02:57:59.937Z,17.30
2019-02-26T03:00:34.492Z,16.63
2019-02-26T03:03:08.255Z,18.30
2019-02-26T03:05:43.828Z,16.67
2019-02-26T03:08:19.334Z,15.77
2019-02-26T03:10:52.113Z,19.30
2019-02-26T03:13:27.896Z,17.80
2019-02-26T03:16:01.649Z,17.50
2019-02-26T03:18:35.288Z,18.83
2019-02-26T03:21:08.891Z,18.03
2019-02-26T03:23:43.505Z,17.30
2019-02-26T03:26:20.331Z,20.00
2019-02-26T03:28:53.280Z,17.67
2019-02-26T03:31:31.015Z,19.20
2019-02-26T03:34:08.851Z,18.33
2019-02-26T03:36:39.949Z,18.73
2019-02-26T03:39:12.669Z,17.90
2019-02-26T03:41:48.408Z,20.07
2019-02-26T03:44:21.271Z,20.07
2019-02-26T03:46:54.781Z,18.13
2019-02-26T03:49:28.276Z,16.80
2019-02-26T03:52:01.868Z,18.27
2019-02-26T03:54:37.419Z,18.40
2019-02-26T03:57:11.448Z,18.60
2019-02-26T03:59:45.781Z,19.13
2019-02-26T04:02:23.519Z,20.33
2019-02-26T04:04:57.093Z,19.03
2019-02-26T04:07:30.362Z,19.50
2019-02-26T04:10:05.781Z,19.97
2019-02-26T04:12:42.346Z,20.30
2019-02-26T04:15:16.637Z,20.20
2019-02-26T04:17:50.131Z,18.33
2019-02-26T04:20:26.969Z,19.50
2019-02-26T04:22:58.804Z,18.93
2019-02-26T04:25:49.506Z,18.30
2019-02-26T04:28:37.127Z,18.93
2019-02-26T04:31:38.619Z,20.30
2019-02-26T04:34:26.932Z,21.57
2019-02-26T04:37:07.280Z,22.43
2019-02-26T04:40:12.056Z,21.93
2019-02-26T04:43:10.033Z,18.33
2019-02-26T04:45:48.178Z,18.87
2019-02-26T04:48:29.130Z,19.27
2019-02-26T04:51:03.377Z,18.17
2019-02-26T04:53:36.851Z,17.97
2019-02-26T04:56:12.797Z,18.23
2019-02-26T04:58:47.710Z,18.37
2019-02-26T05:01:20.639Z,18.80
2019-02-26T05:03:54.063Z,18.40
2019-02-26T05:06:27.657Z,20.10
2019-02-26T05:09:02.840Z,19.60
2019-02-26T05:11:40.412Z,20.33
2019-02-26T05:14:12.298Z,21.03
2019-02-26T05:16:46.641Z,18.37
2019-02-26T05:19:21.663Z,19.47
2019-02-26T05:21:56.769Z,20.10
2019-02-26T05:24:30.530Z,20.13
2019-02-26T05:27:15.320Z,20.73
2019-02-26T05:29:49.200Z,19.40
2019-02-26T05:32:25.034Z,18.63
2019-02-26T05:34:58.613Z,18.80
2019-02-26T05:37:34.816Z,18.27
2019-02-26T05:40:10.384Z,19.40
2019-02-26T05:42:43.109Z,17.20
2019-02-26T05:45:16.590Z,19.40
2019-02-26T05:47:51.345Z,17.70
2019-02-26T05:50:25.515Z,18.17
2019-02-26T05:53:01.807Z,18.20
2019-02-26T05:55:34.292Z,18.60
2019-02-26T05:58:09.966Z,17.37
2019-02-26T06:00:42.864Z,18.83
2019-02-26T06:03:18.519Z,15.70
2019-02-26T06:05:52.811Z,17.50
2019-02-26T06:08:30.200Z,17.33
2019-02-26T06:11:01.826Z,17.23
2019-02-26T06:13:37.691Z,16.70
2019-02-26T06:16:10.487Z,17.47
2019-02-26T06:18:46.469Z,18.03
2019-02-26T06:21:20.964Z,17.70
2019-02-26T06:23:55.161Z,17.00
2019-02-26T06:26:32.661Z,17.10
2019-02-26T06:29:03.833Z,17.80
2019-02-26T06:31:39.581Z,17.77
2019-02-26T06:34:14.335Z,17.90
2019-02-26T06:36:48.871Z,17.00
2019-02-26T06:39:24.493Z,18.10
2019-02-26T06:41:58.123Z,16.97
2019-02-26T06:44:31.727Z,17.03
2019-02-26T06:47:06.807Z,19.17
2019-02-26T06:49:41.405Z,17.90
2019-02-26T06:52:17.923Z,16.70
2019-02-26T06:54:56.918Z,16.57
2019-02-26T06:57:26.068Z,16.30
2019-02-26T07:00:01.157Z,18.00
2019-02-26T07:02:34.857Z,17.77
2019-02-26T07:05:10.902Z,18.20
2019-02-26T07:07:44.448Z,17.20
2019-02-26T07:10:21.492Z,18.43
2019-02-26T07:12:53.188Z,18.80
2019-02-26T07:15:28.813Z,17.60
2019-02-26T07:18:04.455Z,19.83
2019-02-26T07:20:39.976Z,18.70
2019-02-26T07:23:12.939Z,19.43
2019-02-26T07:25:47.542Z,20.13
2019-02-26T07:28:22.835Z,20.20
2019-02-26T07:30:56.254Z,20.67
2019-02-26T07:33:32.172Z,21.17
2019-02-26T07:36:05.004Z,21.80
2019-02-26T07:38:41.147Z,20.30
2019-02-26T07:41:13.657Z,18.30
2019-02-26T07:43:49.277Z,20.23
2019-02-26T07:46:22.599Z,19.57
2019-02-26T07:48:57.180Z,21.07
2019-02-26T07:51:33.367Z,19.73
2019-02-26T07:54:06.423Z,19.03
2019-02-26T07:56:39.965Z,18.50
2019-02-26T07:59:15.047Z,18.97
2019-02-26T08:01:49.728Z,19.00
2019-02-26T08:04:23.261Z,19.40
2019-02-26T08:06:59.059Z,20.90
2019-02-26T08:09:32.071Z,21.60
2019-02-26T08:12:07.186Z,21.13
2019-02-26T08:14:42.758Z,21.33
2019-02-26T08:17:16.092Z,22.10
2019-02-26T08:19:49.669Z,21.77
2019-02-26T08:22:24.755Z,22.47
2019-02-26T08:24:58.504Z,22.63
2019-02-26T08:27:33.873Z,21.17
2019-02-26T08:30:12.133Z,21.77
2019-02-26T08:32:48.453Z,21.37
2019-02-26T08:35:20.819Z,21.83
2019-02-26T08:37:54.436Z,23.30
2019-02-26T08:40:27.935Z,23.07
2019-02-26T08:43:01.471Z,22.70
2019-02-26T08:45:34.987Z,23.40
2019-02-26T08:48:08.476Z,23.37
2019-02-26T08:50:43.958Z,22.67
2019-02-26T08:53:17.248Z,22.67
2019-02-26T08:55:53.234Z,22.63
2019-02-26T08:58:28.145Z,22.23
2019-02-26T09:01:01.219Z,24.13
2019-02-26T09:03:40.738Z,26.30
2019-02-26T09:06:13.256Z,26.90
2019-02-26T09:08:44.920Z,25.07
2019-02-26T09:11:18.448Z,24.97
2019-02-26T09:13:51.871Z,25.00
2019-02-26T09:16:27.792Z,26.43
2019-02-26T09:19:00.564Z,26.63
2019-02-26T09:21:34.689Z,25.90
2019-02-26T09:24:09.470Z,26.27
2019-02-26T09:26:42.962Z,25.83
2019-02-26T09:29:17.385Z,26.53
2019-02-26T09:31:51.719Z,26.10
2019-02-26T09:34:26.693Z,26.60
2019-02-26T09:37:02.575Z,27.20
2019-02-26T09:39:36.477Z,25.53
2019-02-26T09:42:10.936Z,26.80
2019-02-26T09:44:44.693Z,24.63
2019-02-26T09:47:21.344Z,25.45
2019-02-26T09:49:56.177Z,24.95
2019-02-26T09:52:32.495Z,26.15
2019-02-26T09:55:14.475Z,25.10
2019-02-26T09:57:48.047Z,26.62
2019-02-26T10:00:25.428Z,24.82
2019-02-26T10:02:57.503Z,24.32
2019-02-26T10:05:31.414Z,25.60
2019-02-26T10:08:05.390Z,24.95
2019-02-26T10:10:39.796Z,24.15
2019-02-26T10:13:13.555Z,24.23
2019-02-26T10:15:46.916Z,20.82
2019-02-26T10:18:21.143Z,22.20
2019-02-26T10:20:55.527Z,22.62
2019-02-26T10:23:32.776Z,22.98
2019-02-26T10:26:05.753Z,23.18
2019-02-26T10:28:42.533Z,22.87
2019-02-26T10:31:14.650Z,21.95
2019-02-26T10:33:50.403Z,22.22
2019-02-26T10:36:23.300Z,22.37
2019-02-26T10:38:57.753Z,22.22
2019-02-26T10:41:34.238Z,20.60
2019-02-26T10:44:07.327Z,20.40
2019-02-26T10:46:42.559Z,20.20
2019-02-26T10:49:16.012Z,19.77
2019-02-26T10:51:49.395Z,20.40
2019-02-26T10:54:22.879Z,18.35
2019-02-26T10:56:57.373Z,18.82
2019-02-26T10:59:31.409Z,17.42
2019-02-26T11:02:04.865Z,17.57
2019-02-26T11:04:41.201Z,17.62
2019-02-26T11:07:14.281Z,17.60
2019-02-26T11:09:51.058Z,18.10
2019-02-26T11:12:25.191Z,17.60
2019-02-26T11:14:59.017Z,16.87
2019-02-26T11:17:33.593Z,17.12
2019-02-26T11:20:10.201Z,16.25
2019-02-26T11:22:44.795Z,15.70
2019-02-26T11:25:21.444Z,16.05
2019-02-26T11:27:54.394Z,15.85
2019-02-26T11:30:30.219Z,15.83
2019-02-26T11:33:05.892Z,16.42
2019-02-26T11:35:39.721Z,15.30
2019-02-26T11:38:14.933Z,14.68
2019-02-26T11:40:48.835Z,14.23
2019-02-26T11:43:23.913Z,14.07
2019-02-26T11:45:59.233Z,15.48
2019-02-26T11:48:33.216Z,15.35
2019-02-26T11:51:06.999Z,16.48
2019-02-26T11:53:40.482Z,17.00
2019-02-26T11:56:15.857Z,17.23
2019-02-26T11:58:49.258Z,16.87
2019-02-26T12:01:22.762Z,18.02
2019-02-26T12:04:02.516Z,18.35
2019-02-26T12:06:31.358Z,17.12
2019-02-26T12:09:08.762Z,16.25
2019-02-26T12:11:41.767Z,18.05
2019-02-26T12:14:18.409Z,16.25
2019-02-26T12:16:50.700Z,16.62
2019-02-26T12:19:25.668Z,17.70
2019-02-26T12:22:02.808Z,19.20
2019-02-26T12:24:36.181Z,18.95
2019-02-26T12:27:13.325Z,18.20
2019-02-26T12:29:48.143Z,18.87
2019-02-26T12:32:22.333Z,18.50
2019-02-26T12:34:55.727Z,18.23
2019-02-26T12:37:29.216Z,20.50
2019-02-26T12:40:02.668Z,19.57
2019-02-26T12:42:37.569Z,19.10
2019-02-26T12:45:14.477Z,19.77
2019-02-26T12:47:49.445Z,18.98
2019-02-26T12:50:28.985Z,17.85
2019-02-26T12:52:59.733Z,17.85
2019-02-26T12:55:38.209Z,18.60
2019-02-26T12:58:11.156Z,18.15
2019-02-26T13:00:45.510Z,18.42
2019-02-26T13:03:19.883Z,18.50
2019-02-26T13:05:54.144Z,19.45
2019-02-26T13:08:27.556Z,18.45
2019-02-26T13:11:01.025Z,19.92
2019-02-26T13:13:34.519Z,19.95
2019-02-26T13:16:07.974Z,19.23
2019-02-26T13:18:41.561Z,20.08
2019-02-26T13:21:17.164Z,20.82
2019-02-26T13:23:50.592Z,20.50
2019-02-26T13:26:24.160Z,20.32
2019-02-26T13:29:00.479Z,21.23
2019-02-26T13:31:36.016Z,22.17
2019-02-26T13:34:14.040Z,20.72
2019-02-26T13:36:47.542Z,22.02
2019-02-26T13:39:25.560Z,20.77
2019-02-26T13:41:58.595Z,22.17
2019-02-26T13:44:29.040Z,22.20
2019-02-26T13:47:02.421Z,22.32
2019-02-26T13:49:35.879Z,21.00
2019-02-26T13:52:09.416Z,21.40
2019-02-26T13:54:42.917Z,20.65
2019-02-26T13:57:16.559Z,21.33
2019-02-26T13:59:49.998Z,20.43
2019-02-26T14:02:23.475Z,19.20
2019-02-26T14:04:56.911Z,18.90
2019-02-26T14:07:30.363Z,19.42
2019-02-26T14:10:06.024Z,18.55
2019-02-26T14:12:39.573Z,19.77
2019-02-26T14:15:16.592Z,20.52
2019-02-26T14:17:50.096Z,20.35
2019-02-26T14:20:23.700Z,19.52
2019-02-26T14:22:57.228Z,20.37
2019-02-26T14:25:30.774Z,19.30
2019-02-26T14:28:04.395Z,19.15
2019-02-26T14:30:37.784Z,19.40
2019-02-26T14:33:11.376Z,19.65
2019-02-26T14:35:44.954Z,19.45
2019-02-26T14:38:18.414Z,19.23
2019-02-26T14:40:51.874Z,19.57
2019-02-26T14:43:25.305Z,19.67
2019-02-26T14:45:58.840Z,19.57
2019-02-26T14:48:32.324Z,19.42
2019-02-26T14:51:05.861Z,19.40
2019-02-26T14:53:39.360Z,18.37
2019-02-26T14:56:12.864Z,18.48
2019-02-26T14:58:46.417Z,18.75
2019-02-26T15:01:19.815Z,18.52
2019-02-26T15:03:53.278Z,17.12
2019-02-26T15:06:26.776Z,18.15
2019-02-26T15:09:00.211Z,17.27
2019-02-26T15:11:33.841Z,16.40
2019-02-26T15:14:07.650Z,17.37
2019-02-26T15:16:41.142Z,15.65
2019-02-26T15:19:14.525Z,15.18
2019-02-26T15:21:48.021Z,17.10
2019-02-26T15:24:21.516Z,14.25
2019-02-26T15:26:54.901Z,14.83
2019-02-26T15:29:28.458Z,17.55
2019-02-26T15:32:01.923Z,16.90
2019-02-26T15:34:35.381Z,17.15
2019-02-26T15:37:08.995Z,20.40
2019-02-26T15:39:42.433Z,21.23
2019-02-26T15:42:16.347Z,19.62
2019-02-26T15:44:49.792Z,19.23
2019-02-26T15:47:23.358Z,20.75
2019-02-26T15:49:56.942Z,20.52
2019-02-26T15:52:30.391Z,19.67
2019-02-26T15:55:04.535Z,19.77
2019-02-26T15:57:37.991Z,19.45
2019-02-26T16:00:15.385Z,19.40
2019-02-26T16:02:50.261Z,20.75
2019-02-26T16:05:35.715Z,19.05
2019-02-26T16:08:09.574Z,18.57
2019-02-26T16:10:43.276Z,17.40
2019-02-26T16:13:16.705Z,18.45
2019-02-26T16:15:50.158Z,18.50
2019-02-26T16:18:23.688Z,19.50
2019-02-26T16:20:57.153Z,18.27
2019-02-26T16:23:30.631Z,19.73
2019-02-26T16:26:05.700Z,19.40
2019-02-26T16:28:39.587Z,19.70
2019-02-26T16:31:13.156Z,19.20
2019-02-26T16:33:46.795Z,18.90
2019-02-26T16:36:21.041Z,18.32
2019-02-26T16:38:54.487Z,18.57
2019-02-26T16:41:27.885Z,17.55
2019-02-26T16:44:01.446Z,18.30
2019-02-26T16:46:35.191Z,18.70
2019-02-26T16:49:08.841Z,18.40
2019-02-26T16:51:42.304Z,18.07
2019-02-26T16:54:15.732Z,17.20
2019-02-26T16:56:49.411Z,19.12
2019-02-26T16:59:22.939Z,17.77
2019-02-26T17:01:57.006Z,16.50
2019-02-26T17:04:30.961Z,18.02
2019-02-26T17:07:04.564Z,16.40
2019-02-26T17:09:38.283Z,16.67
2019-02-26T17:12:11.866Z,16.53
2019-02-26T17:14:45.240Z,16.40
2019-02-26T17:17:18.796Z,16.60
2019-02-26T17:19:52.195Z,16.47
2019-02-26T17:22:25.659Z,17.37
2019-02-26T17:24:59.427Z,16.90
2019-02-26T17:27:33.002Z,17.13
2019-02-26T17:30:09.664Z,17.77
2019-02-26T17:32:43.440Z,18.27
2019-02-26T17:35:17.475Z,18.70
2019-02-26T17:37:51.031Z,17.87
2019-02-26T17:40:25.837Z,18.33
2019-02-26T17:42:59.411Z,16.93
2019-02-26T17:45:37.225Z,18.83
2019-02-26T17:48:13.325Z,17.20
2019-02-26T17:50:48.536Z,17.40
2019-02-26T17:53:22.113Z,18.30
2019-02-26T17:55:56.201Z,16.87
2019-02-26T17:58:30.623Z,16.70
2019-02-26T18:01:05.583Z,17.20
2019-02-26T18:03:39.155Z,17.43
2019-02-26T18:06:13.159Z,17.60
2019-02-26T18:08:48.131Z,17.20
2019-02-26T18:11:23.713Z,16.43
2019-02-26T18:13:57.781Z,17.00
2019-02-26T18:16:34.487Z,16.40
2019-02-26T18:19:12.154Z,16.87
2019-02-26T18:21:43.551Z,15.63
2019-02-26T18:24:17.501Z,15.43
2019-02-26T18:26:50.989Z,13.67
2019-02-26T18:29:25.670Z,14.80
2019-02-26T18:32:01.155Z,14.77
2019-02-26T18:34:34.558Z,13.53
2019-02-26T18:37:08.144Z,15.57
2019-02-26T18:39:41.500Z,14.67
2019-02-26T18:42:15.639Z,16.57
2019-02-26T18:44:49.043Z,17.47
2019-02-26T18:47:22.546Z,17.60
2019-02-26T18:49:56.062Z,17.27
2019-02-26T18:52:29.572Z,19.17
2019-02-26T18:55:03.128Z,17.13
2019-02-26T18:57:36.603Z,17.80
2019-02-26T19:00:25.677Z,17.77
2019-02-26T19:02:57.154Z,17.77
2019-02-26T19:05:30.613Z,18.80
2019-02-26T19:08:05.820Z,17.20
2019-02-26T19:10:39.553Z,17.60
2019-02-26T19:13:13.067Z,15.63
2019-02-26T19:15:47.926Z,15.40
2019-02-26T19:18:21.706Z,16.13
2019-02-26T19:20:55.196Z,16.33
2019-02-26T19:23:31.476Z,17.10
2019-02-26T19:26:03.906Z,15.33
